Time;durP1;ratioP1;P1;durP2;ratioP2;P2;SDS_P1;SDS_P2;PMS_P1;PMS_P2;Temp;Humidity;BMP_temperature;BMP_pressure;BME280_temperature;BME280_humidity;BME280_pressure;Samples;Min_cycle;Max_cycle;Signal;HPM_P1;HPM_P2
2023/03/05 00:01:25;;;;;;;0.70;0.70;;;5.20;66.10;;;4.74;52.16;94742.16;5118191;28;20204;-20
2023/03/05 00:03:54;;;;;;;0.80;0.80;;;5.20;66.00;;;4.70;52.35;94744.25;5119214;28;20178;-19
2023/03/05 00:06:25;;;;;;;0.80;0.80;;;5.20;66.10;;;4.60;52.76;94733.16;5117763;28;20277;-20
2023/03/05 00:08:53;;;;;;;0.60;0.60;;;5.10;66.40;;;4.57;52.87;94729.13;5119121;28;20281;-19
2023/03/05 00:11:21;;;;;;;0.80;0.80;;;5.10;66.40;;;4.56;53.02;94731.88;5119005;28;20186;-19
2023/03/05 00:13:51;;;;;;;0.70;0.70;;;5.10;66.50;;;4.52;53.11;94736.56;5117770;28;20539;-19
2023/03/05 00:16:19;;;;;;;0.80;0.80;;;5.00;66.50;;;4.51;53.49;94739.34;5135031;27;20628;-19
2023/03/05 00:18:47;;;;;;;0.80;0.80;;;5.00;66.90;;;4.47;53.80;94738.84;5118715;28;20194;-20
2023/03/05 00:21:30;;;;;;;0.60;0.60;;;5.00;66.90;;;4.44;53.83;94739.97;5118539;28;20645;-20
2023/03/05 00:24:00;;;;;;;0.70;0.70;;;4.90;66.90;;;4.38;53.89;94730.22;5118366;28;20410;-19
2023/03/05 00:26:28;;;;;;;0.68;0.68;;;4.90;67.10;;;4.39;53.89;94731.81;5118276;28;20665;-20
2023/03/05 00:28:56;;;;;;;0.70;0.70;;;4.90;67.10;;;4.35;54.49;94727.94;5118449;28;20640;-20
2023/03/05 00:31:30;;;;;;;0.70;0.70;;;4.90;67.40;;;4.33;54.27;94729.84;5118661;28;20520;-19
2023/03/05 00:34:05;;;;;;;0.80;0.80;;;4.80;67.30;;;4.33;54.25;94730.69;5118975;28;20282;-19
2023/03/05 00:36:32;;;;;;;0.80;0.80;;;4.80;67.20;;;4.29;54.47;94716.38;5118343;28;20192;-20
2023/03/05 00:39:00;;;;;;;0.70;0.70;;;4.80;67.30;;;4.31;54.85;94724.81;5134652;27;20202;-19
2023/03/05 00:41:27;;;;;;;0.73;0.73;;;4.80;67.50;;;4.27;54.94;94717.50;5100356;28;20212;-19
2023/03/05 00:43:54;;;;;;;0.60;0.60;;;4.80;67.60;;;4.26;55.04;94721.91;5118441;27;20520;-20
2023/03/05 00:46:22;;;;;;;0.68;0.68;;;4.80;67.80;;;4.25;55.02;94711.69;5117463;28;20229;-20
2023/03/05 00:48:49;;;;;;;0.80;0.80;;;4.70;67.10;;;4.26;55.28;94721.06;5117739;28;20183;-19
2023/03/05 00:51:17;;;;;;;0.60;0.60;;;4.70;67.80;;;4.21;54.84;94710.34;5117973;28;20707;-19
2023/03/05 00:53:44;;;;;;;0.80;0.80;;;4.80;67.80;;;4.21;54.98;94711.19;5117112;28;20193;-19
2023/03/05 00:56:11;;;;;;;0.70;0.70;;;4.70;67.80;;;4.22;54.83;94701.59;5117764;28;20190;-19
2023/03/05 00:58:38;;;;;;;0.70;0.70;;;4.70;67.90;;;4.20;54.66;94693.97;5118007;28;20250;-19
2023/03/05 01:01:06;;;;;;;0.80;0.80;;;4.70;67.90;;;4.22;54.70;94697.22;5117802;28;20204;-19
2023/03/05 01:03:35;;;;;;;0.70;0.70;;;4.70;68.00;;;4.18;54.95;94695.09;5117780;28;20272;-19
2023/03/05 01:06:11;;;;;;;0.70;0.70;;;4.60;68.90;;;4.14;55.00;94692.81;5116387;28;20210;-19
2023/03/05 01:08:39;;;;;;;0.70;0.70;;;4.60;68.00;;;4.18;55.25;94688.13;5099878;28;20191;-19
2023/03/05 01:11:07;;;;;;;0.70;0.70;;;4.60;68.10;;;4.18;54.91;94680.34;5117616;28;20196;-19
2023/03/05 01:13:35;;;;;;;0.80;0.80;;;4.60;67.80;;;4.20;54.77;94681.00;5116695;28;20200;-19
2023/03/05 01:16:03;;;;;;;0.70;0.70;;;4.70;67.80;;;4.23;54.95;94678.06;5117447;28;20190;-19
2023/03/05 01:18:30;;;;;;;0.70;0.70;;;4.70;68.00;;;4.21;55.04;94674.84;5134217;27;20277;-20
2023/03/05 01:20:57;;;;;;;0.70;0.70;;;4.70;68.00;;;4.25;55.28;94677.94;5116535;28;20186;-19
2023/03/05 01:23:24;;;;;;;0.60;0.60;;;4.70;68.10;;;4.22;55.28;94663.47;5116299;28;20237;-19
2023/03/05 01:25:54;;;;;;;0.80;0.80;;;4.70;68.20;;;4.21;55.65;94676.59;5116127;28;20236;-19
2023/03/05 01:28:21;;;;;;;0.70;0.70;;;4.70;68.40;;;4.18;55.78;94671.75;5117834;28;20201;-19
2023/03/05 01:30:48;;;;;;;0.70;0.70;;;4.60;68.50;;;4.16;56.04;94666.69;5116317;28;20194;-20
2023/03/05 01:33:16;;;;;;;0.60;0.60;;;4.60;68.70;;;4.10;56.63;94665.56;5116233;28;20198;-19
2023/03/05 01:35:48;;;;;;;0.70;0.70;;;4.60;68.90;;;4.10;57.17;94665.56;5133306;27;20197;-19
2023/03/05 01:38:16;;;;;;;0.70;0.70;;;4.60;69.30;;;4.03;57.29;94664.56;5117673;28;20179;-20
2023/03/05 01:40:44;;;;;;;0.80;0.80;;;4.60;69.20;;;4.03;56.98;94663.72;5133675;27;20209;-19
2023/03/05 01:43:11;;;;;;;0.60;0.60;;;4.60;69.30;;;4.01;57.88;94659.50;5133120;27;20205;-20
2023/03/05 01:46:16;;;;;;;0.80;0.80;;;4.60;69.60;;;3.97;57.48;94663.41;5116637;28;20218;-19
2023/03/05 01:48:49;;;;;;;0.70;0.70;;;4.50;69.30;;;3.97;57.90;94655.59;5115963;28;20182;-19
2023/03/05 01:51:18;;;;;;;0.70;0.70;;;4.50;69.70;;;3.91;58.00;94669.22;5116018;28;20589;-19
2023/03/05 01:53:45;;;;;;;0.60;0.60;;;4.50;69.80;;;3.93;58.20;94656.91;5115778;28;20205;-19
2023/03/05 01:56:12;;;;;;;0.70;0.70;;;4.40;69.80;;;3.87;58.73;94662.72;5132900;27;20205;-19
2023/03/05 01:58:40;;;;;;;0.70;0.70;;;4.40;70.20;;;3.83;59.26;94662.22;5114836;28;20618;-19
2023/03/05 02:01:07;;;;;;;0.70;0.70;;;4.40;70.60;;;3.84;58.92;94661.25;5116888;28;20190;-19
2023/03/05 02:03:35;;;;;;;0.70;0.70;;;4.30;70.50;;;3.81;59.33;94661.56;5116596;28;20281;-19
2023/03/05 02:06:03;;;;;;;0.60;0.60;;;4.30;70.70;;;3.85;59.52;94662.84;5132725;27;20226;-19
2023/03/05 02:08:30;;;;;;;0.70;0.70;;;4.30;70.80;;;3.85;59.39;94656.88;5132653;27;20190;-19
2023/03/05 02:10:59;;;;;;;0.70;0.70;;;4.30;70.60;;;3.85;59.91;94660.25;5116467;28;20183;-19
2023/03/05 02:13:34;;;;;;;0.80;0.80;;;4.40;71.30;;;3.84;59.58;94650.06;5116401;28;20183;-19
2023/03/05 02:16:01;;;;;;;0.75;0.75;;;4.30;71.30;;;3.82;60.21;94654.56;5116429;28;20182;-19
2023/03/05 02:18:29;;;;;;;0.70;0.70;;;4.30;71.30;;;3.80;60.12;94657.34;5149715;27;20229;-19
2023/03/05 02:20:56;;;;;;;0.70;0.70;;;4.30;71.40;;;3.83;60.69;94651.84;5115302;28;20580;-19
2023/03/05 02:23:32;;;;;;;0.80;0.80;;;4.30;71.80;;;3.78;60.32;94654.06;5116029;28;20677;-19
2023/03/05 02:25:59;;;;;;;0.80;0.80;;;4.30;71.90;;;3.76;60.57;94660.38;5116224;28;20589;-19
2023/03/05 02:28:53;;;;;;;0.70;0.70;;;4.30;71.90;;;3.72;60.87;94654.69;5116417;28;20190;-19
2023/03/05 02:31:24;;;;;;;0.80;0.80;;;4.20;71.80;;;3.68;60.53;94649.00;5115602;28;20201;-19
2023/03/05 02:33:54;;;;;;;0.73;0.73;;;4.20;71.80;;;3.67;60.42;94643.97;5115772;28;20265;-19
2023/03/05 02:36:23;;;;;;;0.80;0.80;;;4.20;71.80;;;3.69;60.27;94637.66;5149333;27;20298;-19
2023/03/05 02:38:52;;;;;;;0.80;0.80;;;4.20;71.80;;;3.68;60.68;94636.03;5115889;28;20190;-19
2023/03/05 02:41:19;;;;;;;0.70;0.70;;;4.20;71.80;;;3.70;60.60;94638.50;5149290;27;20198;-20
2023/03/05 02:43:47;;;;;;;0.70;0.70;;;4.20;71.80;;;3.69;60.80;94635.06;5114906;28;20205;-20
2023/03/05 02:46:14;;;;;;;0.70;0.70;;;4.20;71.80;;;3.65;60.58;94638.13;5115593;28;20214;-19
2023/03/05 02:48:41;;;;;;;0.80;0.80;;;4.20;71.80;;;3.64;60.68;94626.97;5115683;28;20187;-19
2023/03/05 02:51:11;;;;;;;0.70;0.70;;;4.20;71.80;;;3.64;60.49;94615.78;5131825;27;20255;-19
2023/03/05 02:53:38;;;;;;;0.60;0.60;;;4.20;71.80;;;3.69;60.23;94626.50;5132089;27;20193;-19
2023/03/05 02:56:05;;;;;;;0.70;0.70;;;4.20;71.80;;;3.65;60.27;94615.63;5115646;28;20205;-19
2023/03/05 02:58:34;;;;;;;0.70;0.70;;;4.20;71.80;;;3.71;60.01;94618.53;5114695;28;20301;-19
2023/03/05 03:01:01;;;;;;;0.77;0.77;;;4.20;71.80;;;3.72;59.86;94623.56;5114658;28;20197;-19
2023/03/05 03:03:29;;;;;;;0.70;0.70;;;4.20;71.80;;;3.72;60.14;94615.00;5131716;27;20213;-19
2023/03/05 03:05:56;;;;;;;0.80;0.80;;;4.20;71.80;;;3.74;59.77;94618.25;5114537;28;20244;-20
2023/03/05 03:08:23;;;;;;;0.70;0.70;;;4.20;71.80;;;3.75;59.62;94614.66;5115244;28;20190;-20
2023/03/05 03:10:50;;;;;;;0.70;0.70;;;4.20;71.80;;;3.80;59.59;94620.22;5115669;28;20193;-19
2023/03/05 03:13:17;;;;;;;0.65;0.65;;;4.20;71.80;;;3.74;59.32;94619.03;5114612;28;20639;-19
2023/03/05 03:15:44;;;;;;;0.70;0.70;;;4.30;71.80;;;3.75;59.07;94606.88;5115552;28;20198;-19
2023/03/05 03:18:11;;;;;;;0.80;0.80;;;4.30;71.60;;;3.78;59.43;94607.38;5115382;28;20492;-19
2023/03/05 03:20:39;;;;;;;0.70;0.70;;;4.30;71.60;;;3.84;59.14;94600.75;5115711;28;20275;-19
2023/03/05 03:23:07;;;;;;;0.70;0.70;;;4.30;71.40;;;3.83;59.25;94601.72;5115271;28;20266;-19
2023/03/05 03:25:34;;;;;;;0.60;0.60;;;4.30;71.30;;;3.86;58.78;94601.41;5114777;28;20181;-19
2023/03/05 03:28:01;;;;;;;0.60;0.60;;;4.30;71.30;;;3.83;58.53;94596.53;5115216;28;20200;-19
2023/03/05 03:30:28;;;;;;;0.70;0.70;;;4.40;71.20;;;3.80;58.81;94599.47;5115304;28;20194;-19
2023/03/05 03:32:55;;;;;;;0.70;0.70;;;4.30;71.20;;;3.78;59.15;94588.41;5115293;28;20190;-19
2023/03/05 03:35:22;;;;;;;0.70;0.70;;;4.30;71.50;;;3.74;59.07;94590.50;5115804;28;20496;-20
2023/03/05 03:37:49;;;;;;;0.60;0.60;;;4.30;71.30;;;3.76;59.04;94595.53;5114437;28;20233;-19
2023/03/05 03:40:17;;;;;;;0.73;0.73;;;4.30;71.40;;;3.76;59.02;94590.34;5115213;28;20644;-19
2023/03/05 03:42:44;;;;;;;0.60;0.60;;;4.30;71.40;;;3.68;59.66;94598.94;5115143;28;20197;-19
2023/03/05 03:45:12;;;;;;;0.80;0.80;;;4.30;71.80;;;3.64;60.03;94598.44;5115187;28;20624;-19
2023/03/05 03:47:39;;;;;;;0.70;0.70;;;4.20;71.80;;;3.59;60.07;94587.72;5114948;28;20218;-20
2023/03/05 03:50:06;;;;;;;0.80;0.80;;;4.20;71.80;;;3.60;60.29;94591.13;5115133;28;20193;-20
2023/03/05 03:52:33;;;;;;;0.80;0.80;;;4.10;71.70;;;3.61;59.68;94590.94;5114518;28;20190;-19
2023/03/05 03:55:00;;;;;;;0.80;0.80;;;4.10;71.70;;;3.60;59.90;94583.34;5114252;28;20263;-19
2023/03/05 03:57:29;;;;;;;0.70;0.70;;;4.10;71.70;;;3.60;59.75;94576.38;5114903;28;20562;-19
2023/03/05 03:59:56;;;;;;;0.70;0.70;;;4.10;71.70;;;3.59;59.87;94579.94;5115295;28;20198;-19
2023/03/05 04:02:24;;;;;;;0.80;0.80;;;4.10;71.70;;;3.61;59.71;94575.38;5115298;28;20538;-19
2023/03/05 04:04:52;;;;;;;0.70;0.70;;;4.10;71.70;;;3.60;59.63;94567.78;5115110;28;20198;-19
2023/03/05 04:07:19;;;;;;;0.60;0.60;;;4.10;71.70;;;3.60;59.56;94578.16;5130927;28;20230;-19
2023/03/05 04:09:46;;;;;;;0.80;0.80;;;4.10;71.70;;;3.61;59.26;94570.19;5115183;28;20202;-19
2023/03/05 04:12:16;;;;;;;0.70;0.70;;;4.10;71.70;;;3.60;59.47;94563.41;5115201;28;20536;-19
2023/03/05 04:14:46;;;;;;;0.70;0.70;;;4.10;71.70;;;3.59;59.17;94554.00;5115221;28;20198;-19
2023/03/05 04:17:14;;;;;;;0.60;0.60;;;4.20;71.80;;;3.64;59.17;94566.50;5114995;28;20194;-19
2023/03/05 04:19:42;;;;;;;0.80;0.80;;;4.20;71.80;;;3.65;58.97;94563.75;5115145;28;20202;-19
2023/03/05 04:22:12;;;;;;;0.80;0.80;;;4.20;71.80;;;3.64;59.05;94569.91;5117757;28;20202;-19
2023/03/05 04:24:39;;;;;;;0.70;0.70;;;4.20;71.80;;;3.63;59.08;94557.09;5118367;28;20240;-19
2023/03/05 04:27:06;;;;;;;0.70;0.70;;;4.20;71.80;;;3.61;59.35;94557.22;5118553;28;20275;-20
2023/03/05 04:29:33;;;;;;;0.80;0.80;;;4.20;71.80;;;3.63;59.23;94557.09;5118617;28;20532;-19
2023/03/05 04:32:01;;;;;;;0.60;0.60;;;4.10;71.70;;;3.65;59.48;94548.19;5117576;28;20557;-19
2023/03/05 04:34:28;;;;;;;0.80;0.80;;;4.10;71.70;;;3.65;59.53;94549.94;5118493;28;20269;-19
2023/03/05 04:36:55;;;;;;;0.80;0.80;;;4.10;71.70;;;3.62;59.32;94552.88;5118318;28;20621;-19
2023/03/05 04:39:22;;;;;;;0.70;0.70;;;4.10;71.70;;;3.60;59.44;94552.22;5118133;28;20190;-19
2023/03/05 04:41:49;;;;;;;0.80;0.80;;;4.20;71.80;;;3.55;59.59;94552.69;5118386;28;20205;-19
2023/03/05 04:44:16;;;;;;;0.70;0.70;;;4.10;71.70;;;3.56;59.45;94545.72;5118189;28;20190;-19
2023/03/05 04:46:43;;;;;;;0.77;0.77;;;4.10;71.70;;;3.56;59.59;94550.91;5118314;28;20618;-19
2023/03/05 04:49:10;;;;;;;0.70;0.70;;;4.10;71.70;;;3.56;59.69;94550.91;5117072;28;20186;-19
2023/03/05 04:51:37;;;;;;;0.70;0.70;;;4.10;71.70;;;3.60;59.74;94549.63;5118050;28;20523;-20
2023/03/05 04:54:05;;;;;;;0.70;0.70;;;4.10;71.70;;;3.55;59.24;94544.91;5118013;28;20268;-19
2023/03/05 04:56:32;;;;;;;0.70;0.70;;;4.10;71.70;;;3.54;59.48;94535.53;5117881;28;20194;-20
2023/03/05 04:58:59;;;;;;;0.70;0.70;;;4.00;71.70;;;3.56;59.46;94543.13;5117998;28;20530;-19
2023/03/05 05:01:26;;;;;;;0.70;0.70;;;4.00;71.70;;;3.56;59.63;94532.75;5117848;28;20190;-20
2023/03/05 05:03:53;;;;;;;0.80;0.80;;;4.00;71.70;;;3.56;59.61;94538.75;5118740;28;20205;-19
2023/03/05 05:06:20;;;;;;;0.70;0.70;;;4.00;72.50;;;3.60;59.26;94534.06;5117650;28;20701;-19
2023/03/05 05:08:48;;;;;;;0.70;0.70;;;4.10;71.70;;;3.59;59.25;94535.03;5117571;28;20633;-19
2023/03/05 05:11:15;;;;;;;0.70;0.70;;;4.00;71.70;;;3.61;59.11;94530.50;5117652;28;20580;-19
2023/03/05 05:13:42;;;;;;;0.70;0.70;;;4.10;71.70;;;3.61;58.76;94533.09;5117553;28;20193;-19
2023/03/05 05:16:09;;;;;;;0.80;0.80;;;4.10;71.70;;;3.62;59.05;94537.31;5133797;27;20636;-20
2023/03/05 05:18:36;;;;;;;0.60;0.60;;;4.10;71.70;;;3.59;58.88;94528.06;5117776;28;20186;-19
2023/03/05 05:21:12;;;;;;;0.80;0.80;;;4.10;71.70;;;3.58;59.05;94523.06;5150811;27;20194;-20
2023/03/05 05:23:39;;;;;;;0.60;0.60;;;4.10;71.70;;;3.59;59.07;94520.28;5116604;28;20233;-19
2023/03/05 05:26:08;;;;;;;0.70;0.70;;;4.10;71.70;;;3.64;58.61;94525.81;5117276;28;20190;-19
2023/03/05 05:28:37;;;;;;;0.70;0.70;;;4.10;71.70;;;3.66;58.67;94515.28;5117213;28;20194;-19
2023/03/05 05:31:12;;;;;;;0.70;0.70;;;4.20;71.70;;;3.65;58.75;94516.22;5116302;28;20194;-19
2023/03/05 05:33:40;;;;;;;0.80;0.80;;;4.20;71.80;;;3.64;58.87;94525.00;5117356;28;20178;-19
2023/03/05 05:36:11;;;;;;;0.80;0.80;;;4.20;71.80;;;3.61;58.91;94522.72;5116306;28;20186;-19
2023/03/05 05:38:39;;;;;;;0.80;0.80;;;4.20;71.80;;;3.62;58.73;94532.94;5116998;28;20193;-19
2023/03/05 05:41:10;;;;;;;0.80;0.80;;;4.10;71.70;;;3.65;58.67;94521.41;5116164;28;20262;-20
2023/03/05 05:43:38;;;;;;;0.70;0.70;;;4.20;71.50;;;3.62;58.60;94524.34;5117159;28;20186;-19
2023/03/05 05:46:11;;;;;;;0.60;0.60;;;4.20;71.70;;;3.67;58.52;94515.13;5116978;28;20201;-19
2023/03/05 05:48:39;;;;;;;0.70;0.70;;;4.20;71.60;;;3.65;58.61;94524.84;5117069;28;20527;-19
2023/03/05 05:51:09;;;;;;;0.70;0.70;;;4.10;71.70;;;3.66;58.34;94528.25;5116856;28;20182;-19
2023/03/05 05:53:37;;;;;;;0.70;0.70;;;4.20;71.50;;;3.67;58.36;94530.69;5117354;28;20181;-19
2023/03/05 05:56:08;;;;;;;0.70;0.70;;;4.20;71.80;;;3.63;58.64;94526.78;5117274;28;20251;-19
2023/03/05 05:58:37;;;;;;;0.80;0.80;;;4.10;71.70;;;3.66;58.54;94536.84;5116719;28;20178;-19
2023/03/05 06:01:35;;;;;;;0.70;0.70;;;4.10;71.70;;;3.60;58.37;94545.25;5116619;28;20186;-19
2023/03/05 06:04:03;;;;;;;0.65;0.65;;;4.10;71.70;;;3.60;58.59;94536.66;5105902;28;20617;-19
2023/03/05 06:06:30;;;;;;;0.70;0.70;;;4.10;71.70;;;3.56;58.63;94530.16;5115498;28;20664;-19
2023/03/05 06:08:58;;;;;;;0.70;0.70;;;4.10;71.70;;;3.59;58.59;94532.44;5116659;28;20525;-20
2023/03/05 06:11:25;;;;;;;0.60;0.60;;;4.10;71.70;;;3.63;58.26;94549.31;5115541;28;20193;-18
2023/03/05 06:13:52;;;;;;;0.70;0.70;;;4.10;71.60;;;3.62;58.19;94537.31;5116467;28;20269;-19
2023/03/05 06:16:22;;;;;;;0.75;0.75;;;4.10;71.40;;;3.65;58.23;94537.81;5116635;28;20566;-19
2023/03/05 06:18:53;;;;;;;0.70;0.70;;;4.10;71.40;;;3.63;58.25;94537.16;5116525;28;20265;-19
2023/03/05 06:21:21;;;;;;;0.70;0.70;;;4.10;71.40;;;3.61;58.34;94536.47;5116749;28;20636;-19
2023/03/05 06:23:49;;;;;;;0.70;0.70;;;4.10;71.50;;;3.65;58.14;94536.97;5116062;28;20230;-20
2023/03/05 06:26:20;;;;;;;0.70;0.70;;;4.20;71.50;;;3.66;58.21;94546.38;5116459;28;20190;-18
2023/03/05 06:28:48;;;;;;;0.80;0.80;;;4.10;71.30;;;3.65;57.85;94534.38;5115327;28;20736;-19
2023/03/05 06:31:20;;;;;;;0.80;0.80;;;4.20;71.50;;;3.66;58.16;94541.22;5116187;28;20186;-19
2023/03/05 06:33:49;;;;;;;0.70;0.70;;;4.10;71.30;;;3.68;57.85;94537.47;5116672;28;20590;-18
2023/03/05 06:36:18;;;;;;;0.70;0.70;;;4.20;71.40;;;3.67;57.95;94543.66;5116018;28;20190;-19
2023/03/05 06:38:46;;;;;;;0.80;0.80;;;4.20;71.20;;;3.74;57.79;94554.19;5115772;28;20193;-19
2023/03/05 06:41:22;;;;;;;0.80;0.80;;;4.20;71.10;;;3.73;57.81;94539.59;5115017;28;20259;-19
2023/03/05 06:43:49;;;;;;;0.70;0.70;;;4.20;71.00;;;3.77;57.72;94540.94;5115835;28;20185;-19
2023/03/05 06:46:20;;;;;;;0.70;0.70;;;4.30;71.00;;;3.81;57.81;94547.41;5115903;28;20198;-19
2023/03/05 06:48:49;;;;;;;0.70;0.70;;;4.20;71.10;;;3.82;57.62;94546.44;5114771;28;20217;-19
2023/03/05 06:51:32;;;;;;;0.80;0.80;;;4.30;70.90;;;3.82;57.48;94543.84;5115782;28;20254;-19
2023/03/05 06:54:07;;;;;;;0.60;0.60;;;4.30;70.90;;;3.79;57.69;94527.78;5115201;28;20210;-19
2023/03/05 06:56:39;;;;;;;0.70;0.70;;;4.40;71.00;;;3.81;57.66;94551.81;5115914;28;20181;-19
2023/03/05 06:59:06;;;;;;;0.80;0.80;;;4.30;70.90;;;3.80;57.71;94538.00;5149171;27;20200;-19
2023/03/05 07:01:34;;;;;;;0.80;0.80;;;4.30;70.90;;;3.81;57.56;94537.03;5132025;27;20200;-19
2023/03/05 07:04:02;;;;;;;0.60;0.60;;;4.30;70.90;;;3.85;57.34;94538.31;5115590;28;20292;-19
2023/03/05 07:06:33;;;;;;;0.70;0.70;;;4.40;70.90;;;3.89;57.48;94538.81;5115495;28;20190;-19
2023/03/05 07:09:01;;;;;;;0.70;0.70;;;4.40;70.90;;;3.90;57.29;94542.25;5115408;28;20193;-19
2023/03/05 07:11:29;;;;;;;0.70;0.70;;;4.40;70.80;;;3.95;57.40;94552.94;5114644;28;20189;-19
2023/03/05 07:13:56;;;;;;;0.80;0.80;;;4.40;70.70;;;3.93;57.33;94545.34;5114899;28;20205;-19
2023/03/05 07:16:27;;;;;;;0.70;0.70;;;4.50;70.80;;;3.93;57.40;94550.53;5115418;28;20189;-19
2023/03/05 07:18:57;;;;;;;0.80;0.80;;;4.50;70.70;;;3.94;57.49;94553.91;5115718;28;20188;-19
2023/03/05 07:21:28;;;;;;;0.70;0.70;;;4.50;70.70;;;3.95;57.75;94548.56;5097583;28;20536;-19
2023/03/05 07:23:58;;;;;;;0.60;0.60;;;4.40;70.70;;;4.00;57.09;94546.31;5115211;28;20237;-19
2023/03/05 07:26:26;;;;;;;0.70;0.70;;;4.50;70.70;;;4.00;57.27;94545.50;5115369;28;20271;-21
2023/03/05 07:28:53;;;;;;;0.80;0.80;;;4.50;70.70;;;4.03;57.19;94550.38;5115416;28;20589;-19
2023/03/05 07:31:25;;;;;;;0.80;0.80;;;4.50;70.70;;;4.07;57.38;94553.47;5115486;28;20186;-20
2023/03/05 07:33:53;;;;;;;0.70;0.70;;;4.50;70.70;;;4.05;57.46;94560.59;5115612;28;20189;-19
2023/03/05 07:36:20;;;;;;;0.70;0.70;;;4.50;70.60;;;4.04;57.00;94548.59;5114406;28;20194;-19
2023/03/05 07:38:47;;;;;;;0.70;0.70;;;4.50;70.60;;;4.03;57.36;94540.00;5115104;28;20263;-19
2023/03/05 07:41:18;;;;;;;0.75;0.75;;;4.60;70.90;;;4.03;57.14;94552.97;5114651;28;20625;-19
2023/03/05 07:43:49;;;;;;;0.70;0.70;;;4.50;70.70;;;4.04;57.13;94545.97;5115504;27;20289;-19
2023/03/05 07:46:19;;;;;;;0.80;0.80;;;4.60;70.80;;;4.05;57.44;94543.22;5115182;28;20606;-19
2023/03/05 07:48:46;;;;;;;0.70;0.70;;;4.60;70.70;;;4.10;57.28;94538.38;5114976;28;20202;-19
2023/03/05 07:51:17;;;;;;;0.70;0.70;;;4.60;70.70;;;4.12;57.03;94538.22;5115377;28;20571;-19
2023/03/05 07:53:48;;;;;;;0.70;0.70;;;4.60;70.60;;;4.12;57.01;94539.00;5131284;28;20281;-19
2023/03/05 07:56:30;;;;;;;0.70;0.70;;;4.70;70.70;;;4.09;57.13;94534.16;5116718;28;20208;-19
2023/03/05 07:58:59;;;;;;;0.80;0.80;;;4.60;70.70;;;4.12;57.25;94540.81;5118101;28;20243;-19
2023/03/05 08:01:28;;;;;;;0.70;0.70;;;4.70;70.70;;;4.14;56.88;94546.66;5118996;28;20251;-19
2023/03/05 08:03:55;;;;;;;0.80;0.80;;;4.70;70.60;;;4.18;56.95;94536.78;5119011;28;20201;-19
2023/03/05 08:06:22;;;;;;;0.70;0.70;;;4.70;70.50;;;4.19;56.73;94536.59;5118905;28;20223;-19
2023/03/05 08:08:51;;;;;;;0.80;0.80;;;4.80;70.60;;;4.13;56.88;94539.84;5118888;28;20214;-19
2023/03/05 08:11:18;;;;;;;0.70;0.70;;;4.70;70.60;;;4.18;57.15;94534.16;5119305;28;20242;-19
2023/03/05 08:13:45;;;;;;;0.70;0.70;;;4.70;70.60;;;4.21;56.99;94532.06;5118780;28;20196;-19
2023/03/05 08:16:16;;;;;;;0.68;0.68;;;4.70;70.50;;;4.27;57.01;94536.59;5118725;28;20255;-18
2023/03/05 08:18:44;;;;;;;0.60;0.60;;;4.70;70.40;;;4.32;56.43;94530.91;5118626;28;20206;-19
2023/03/05 08:21:32;;;;;;;0.70;0.70;;;4.80;70.30;;;4.33;56.56;94532.53;5118616;28;20514;-19
2023/03/05 08:24:03;;;;;;;0.70;0.70;;;4.80;70.20;;;4.35;56.46;94535.78;5117763;28;20230;-19
2023/03/05 08:26:32;;;;;;;0.70;0.70;;;4.80;70.20;;;4.35;56.46;94543.56;5118915;28;20224;-19
2023/03/05 08:29:01;;;;;;;0.70;0.70;;;4.80;70.10;;;4.37;56.43;94533.84;5118565;28;20542;-19
2023/03/05 08:31:31;;;;;;;0.75;0.75;;;4.80;70.10;;;4.39;56.32;94525.88;5118407;28;20190;-20
2023/03/05 08:34:01;;;;;;;0.73;0.73;;;4.90;70.10;;;4.43;56.39;94527.16;5118687;28;20513;-19
2023/03/05 08:36:29;;;;;;;0.60;0.60;;;4.90;70.10;;;4.43;56.44;94532.38;5118857;28;20204;-19
2023/03/05 08:38:57;;;;;;;0.60;0.60;;;4.90;70.10;;;4.39;56.84;94534.47;5118094;28;20194;-19
2023/03/05 08:41:25;;;;;;;0.70;0.70;;;4.90;70.20;;;4.37;56.78;94530.44;5118242;28;20194;-20
2023/03/05 08:43:52;;;;;;;0.70;0.70;;;4.90;70.20;;;4.40;56.91;94543.09;5134496;27;20224;-19
2023/03/05 08:46:19;;;;;;;0.70;0.70;;;4.90;70.30;;;4.38;56.70;94537.25;5118683;28;20523;-19
2023/03/05 08:48:46;;;;;;;0.70;0.70;;;4.90;70.20;;;4.38;56.86;94539.84;5117286;28;20579;-20
2023/03/05 08:51:17;;;;;;;0.70;0.70;;;4.90;70.30;;;4.41;56.91;94536.94;5118022;28;20198;-19
2023/03/05 08:53:45;;;;;;;0.70;0.70;;;4.90;70.30;;;4.43;56.50;94535.78;5117220;28;20179;-19
2023/03/05 08:56:13;;;;;;;0.80;0.80;;;4.90;70.20;;;4.46;56.53;94535.44;5117339;28;20194;-20
2023/03/05 08:58:40;;;;;;;0.70;0.70;;;4.90;70.20;;;4.49;56.54;94531.72;5117888;28;20221;-19
2023/03/05 09:01:07;;;;;;;0.70;0.70;;;4.90;70.20;;;4.53;56.36;94522.63;5117841;28;20678;-20
2023/03/05 09:03:34;;;;;;;0.70;0.70;;;5.00;70.20;;;4.54;56.38;94526.03;5117521;28;20229;-19
2023/03/05 09:06:08;;;;;;;0.70;0.70;;;5.00;70.10;;;4.56;56.42;94529.28;5116887;28;20206;-19
2023/03/05 09:08:36;;;;;;;0.70;0.70;;;5.10;70.20;;;4.60;56.40;94521.00;5117854;28;20194;-20
2023/03/05 09:11:06;;;;;;;0.70;0.70;;;5.10;70.10;;;4.59;55.96;94524.56;5117538;28;20540;-19
2023/03/05 09:13:33;;;;;;;0.70;0.70;;;5.10;70.00;;;4.65;55.99;94525.69;5117722;28;20201;-20
2023/03/05 09:16:05;;;;;;;0.70;0.70;;;5.10;70.00;;;4.67;55.81;94520.34;5116761;28;20528;-19
2023/03/05 09:18:35;;;;;;;0.70;0.70;;;5.10;69.90;;;4.67;55.94;94515.94;5118107;28;20254;-19
2023/03/05 09:21:11;;;;;;;0.70;0.70;;;5.20;69.90;;;4.66;55.92;94522.13;5117657;28;20182;-19
2023/03/05 09:23:39;;;;;;;0.80;0.80;;;5.20;70.00;;;4.65;55.82;94517.91;5116409;28;20229;-19
2023/03/05 09:26:11;;;;;;;0.70;0.70;;;5.20;70.00;;;4.65;56.02;94516.13;5117692;28;20625;-19
2023/03/05 09:28:39;;;;;;;0.70;0.70;;;5.20;69.90;;;4.69;55.78;94514.00;5118079;28;20202;-19
2023/03/05 09:31:07;;;;;;;0.70;0.70;;;5.20;69.80;;;4.68;56.00;94522.78;5117271;28;20190;-19
2023/03/05 09:33:36;;;;;;;0.80;0.80;;;5.20;69.80;;;4.65;55.99;94525.69;5116708;28;20216;-18
2023/03/05 09:36:05;;;;;;;0.70;0.70;;;5.20;69.90;;;4.52;54.62;94525.38;5116489;28;20201;-19
2023/03/05 09:38:32;;;;;;;0.80;0.80;;;5.10;69.00;;;4.31;55.05;94517.13;5117753;28;20299;-19
2023/03/05 09:41:14;;;;;;;0.80;0.80;;;5.00;69.20;;;4.28;55.60;94530.41;5117020;28;20314;-20
2023/03/05 09:44:09;;;;;;;0.70;0.70;;;4.80;69.40;;;4.18;54.93;94518.59;5116150;28;20194;-18
2023/03/05 09:47:12;;;;;;;0.70;0.70;;;4.80;69.10;;;4.15;53.93;94524.91;5117322;28;20193;-19
2023/03/05 09:50:11;;;;;;;0.70;0.70;;;4.70;68.90;;;4.16;54.62;94534.31;5116312;28;20174;-19
2023/03/05 09:52:54;;;;;;;0.70;0.70;;;4.70;69.00;;;4.13;53.94;94524.28;5117225;28;20182;-19
2023/03/05 09:55:42;;;;;;;0.70;0.70;;;4.70;68.70;;;4.07;54.52;94528.31;5116120;28;20605;-19
2023/03/05 09:58:17;;;;;;;0.70;0.70;;;4.60;68.80;;;4.09;54.69;94518.59;5133269;27;20186;-18
2023/03/05 10:01:00;;;;;;;0.70;0.70;;;4.60;68.90;;;4.13;53.43;94526.88;5116811;28;20250;-19
2023/03/05 10:03:41;;;;;;;0.80;0.80;;;4.60;68.50;;;4.00;53.79;94524.72;5117387;28;20193;-18
2023/03/05 10:06:25;;;;;;;0.60;0.60;;;4.60;68.40;;;4.02;53.93;94522.78;5116817;27;20620;-19
2023/03/05 10:09:19;;;;;;;0.60;0.60;;;4.50;68.60;;;4.09;53.87;94521.19;5115765;28;20207;-19
2023/03/05 10:11:56;;;;;;;0.80;0.80;;;4.50;68.50;;;4.18;53.73;94516.00;5116320;28;20235;-19
2023/03/05 10:14:31;;;;;;;0.70;0.70;;;4.60;68.40;;;4.20;54.00;94522.66;5115947;28;20204;-19
2023/03/05 10:17:43;;;;;;;0.70;0.70;;;4.60;68.50;;;4.27;52.52;94522.81;5115918;28;20201;-18
2023/03/05 10:20:38;;;;;;;0.70;0.70;;;4.70;68.40;;;4.25;52.24;94510.00;5115701;28;20189;-19
2023/03/05 10:23:23;;;;;;;0.60;0.60;;;4.70;67.90;;;4.26;52.49;94515.97;5116203;28;20206;-19
2023/03/05 10:26:12;;;;;;;0.70;0.70;;;4.70;67.70;;;4.30;52.80;94517.31;5115505;28;20208;-19
2023/03/05 10:29:23;;;;;;;0.50;0.50;;;4.70;67.90;;;4.41;52.70;94513.56;5116191;28;20206;-19
2023/03/05 10:31:56;;;;;;;0.60;0.60;;;4.80;68.00;;;4.46;52.16;94508.69;5115236;28;20206;-19
2023/03/05 10:34:58;;;;;;;0.80;0.80;;;4.90;67.70;;;4.55;52.20;94510.28;5116159;28;20586;-19
2023/03/05 10:38:08;;;;;;;0.70;0.70;;;4.90;67.70;;;4.63;51.41;94512.88;5149720;27;20177;-19
2023/03/05 10:40:46;;;;;;;0.60;0.60;;;5.00;67.20;;;4.59;50.76;94501.19;5096609;28;20585;-19
2023/03/05 10:43:40;;;;;;;0.80;0.80;;;5.10;66.80;;;4.49;51.33;94500.56;5115088;28;20261;-19
2023/03/05 10:46:15;;;;;;;0.70;0.70;;;5.10;66.70;;;4.47;51.37;94499.91;5115349;28;20253;-18
2023/03/05 10:48:51;;;;;;;0.70;0.70;;;5.00;66.90;;;4.44;51.76;94488.09;5115177;28;20205;-20